Terminal Aerodrome Forecast
Issued by NWS Louisville, KY

Home | Current Version | Previous Version | Text Only | Print | Product List | Glossary On
Versions: 1 2 3 4 5 6 7 8 9 10 11 12 13 14 15
000
FTUS43 KLMK 282300
TAFBWG
TAF
KBWG 282327Z 2900/2924 12005KT P6SM SCT250
     FM290800 18009KT P6SM BKN250 WS018/21045KT
     FM291300 22014G20KT P6SM VCSH BKN050=

USA.gov is the U.S. government's official web portal to all federal, state and local government web resources and services.